Time;durP1;ratioP1;P1;durP2;ratioP2;P2;SDS_P1;SDS_P2;PMS_P1;PMS_P2;Temp;Humidity;BMP_temperature;BMP_pressure;BME280_temperature;BME280_humidity;BME280_pressure;Samples;Min_cycle;Max_cycle;Signal;HPM_P1;HPM_P2
2024/01/01 20:03:24;;;;;;;19.50;11.90;;;;;;;4.68;100.00;100082.04;104738;1276;606296;-73
2024/01/01 20:05:51;;;;;;;21.70;12.60;;;;;;;5.10;100.00;100068.21;106463;1259;62104;-76
2024/01/01 20:08:19;;;;;;;20.20;11.90;;;;;;;5.34;100.00;100066.24;106926;1249;58264;-72
2024/01/01 20:11:00;;;;;;;16.50;9.80;;;;;;;5.57;100.00;100079.02;107447;1244;69913;-72
2024/01/01 20:13:33;;;;;;;14.00;7.50;;;;;;;5.90;100.00;100098.90;107374;1256;62284;-71
2024/01/01 20:16:00;;;;;;;12.10;7.60;;;;;;;6.47;100.00;100095.21;107253;1246;213619;-74
2024/01/01 20:18:28;;;;;;;11.70;7.30;;;;;;;6.88;100.00;100096.52;107621;1244;63596;-76
2024/01/01 20:20:55;;;;;;;13.60;9.10;;;;;;;7.14;100.00;100102.54;107523;1243;61186;-77
2024/01/01 20:23:23;;;;;;;13.00;9.10;;;;;;;7.21;100.00;100109.58;107503;1241;58337;-74
2024/01/01 20:25:51;;;;;;;14.80;9.30;;;;;;;7.25;100.00;100119.69;107408;1241;71948;-74
2024/01/01 20:28:19;;;;;;;15.80;9.10;;;;;;;7.24;100.00;100128.77;107484;1241;70447;-71
2024/01/01 20:30:46;;;;;;;13.40;8.80;;;;;;;7.28;100.00;100142.90;107427;1251;59635;-79
2024/01/01 20:33:14;;;;;;;15.90;8.70;;;;;;;7.36;100.00;100151.30;107627;1244;74962;-72
2024/01/01 20:35:41;;;;;;;12.20;8.10;;;;;;;7.44;100.00;100160.31;107625;1243;59001;-75
2024/01/01 20:38:14;;;;;;;12.00;7.80;;;;;;;7.56;100.00;100164.70;107700;1243;61106;-83
2024/01/01 20:41:45;;;;;;;;;;;;;;;;;;;;;
2024/01/01 20:44:21;;;;;;;12.10;8.40;;;;;;;7.84;100.00;100176.30;107510;1245;61142;-71
2024/01/01 20:46:49;;;;;;;12.50;7.40;;;;;;;7.95;100.00;100183.66;107521;1244;69351;-72
2024/01/01 20:49:16;;;;;;;12.30;7.40;;;;;;;8.04;100.00;100187.05;107455;1243;63548;-79
2024/01/01 20:51:44;;;;;;;11.80;6.90;;;;;;;8.20;100.00;100194.74;107534;1242;59030;-76
2024/01/01 20:54:12;;;;;;;10.40;6.80;;;;;;;8.33;100.00;100210.66;107551;1254;61069;-73
2024/01/01 20:56:39;;;;;;;9.20;5.60;;;;;;;8.43;100.00;100214.49;107424;1246;72832;-74
2024/01/01 20:59:09;;;;;;;10.20;5.70;;;;;;;8.51;100.00;100211.98;107454;1241;61389;-75
2024/01/01 21:01:40;;;;;;;8.10;5.40;;;;;;;8.58;100.00;100202.11;107412;1254;69495;-74
2024/01/01 21:04:08;;;;;;;8.10;5.20;;;;;;;8.59;100.00;100208.45;107536;1243;63618;-75
2024/01/01 21:06:47;;;;;;;8.60;6.30;;;;;;;8.54;100.00;100210.23;107406;1244;59497;-74
2024/01/01 21:09:25;;;;;;;11.30;6.80;;;;;;;8.47;100.00;100212.13;107388;1241;58874;-78
2024/01/01 21:12:00;;;;;;;10.00;5.90;;;;;;;8.24;100.00;100180.94;107546;1242;62039;-73
2024/01/01 21:14:31;;;;;;;9.80;6.40;;;;;;;8.32;100.00;100216.98;107484;1242;72379;-71
2024/01/01 21:16:59;;;;;;;11.10;7.00;;;;;;;8.20;100.00;100226.09;107489;1244;59253;-74
2024/01/01 21:19:26;;;;;;;9.80;6.60;;;;;;;8.07;100.00;100226.85;107486;1246;64801;-71
2024/01/01 21:21:54;;;;;;;9.70;5.90;;;;;;;8.00;100.00;100220.23;107503;1245;58960;-73
2024/01/01 21:24:24;;;;;;;8.40;6.10;;;;;;;7.89;100.00;100215.11;107554;1252;59002;-74
2024/01/01 21:26:51;;;;;;;11.50;7.00;;;;;;;7.83;100.00;100217.07;107503;1244;63733;-72
2024/01/01 21:29:19;;;;;;;9.70;6.40;;;;;;;7.82;100.00;100219.43;107556;1252;72164;-72
2024/01/01 21:31:46;;;;;;;9.00;5.90;;;;;;;7.79;100.00;100226.92;107566;1244;59443;-73
2024/01/01 21:34:13;;;;;;;7.80;5.50;;;;;;;7.78;100.00;100235.10;107551;1241;73739;-71
2024/01/01 21:36:43;;;;;;;7.50;5.40;;;;;;;7.75;100.00;100239.10;107464;1254;57388;-73
2024/01/01 21:39:25;;;;;;;9.50;5.00;;;;;;;7.74;100.00;100240.08;107443;1241;62009;-72
2024/01/01 21:41:52;;;;;;;6.80;5.00;;;;;;;7.66;100.00;100238.86;107449;1245;62877;-74
2024/01/01 21:44:20;;;;;;;9.40;5.30;;;;;;;7.58;100.00;100239.92;107445;1248;72210;-74
2024/01/01 21:46:50;;;;;;;6.90;4.60;;;;;;;7.52;100.00;100243.77;107518;1242;60460;-72
2024/01/01 21:49:20;;;;;;;7.50;5.40;;;;;;;7.50;100.00;100249.81;107561;1242;63511;-70
2024/01/01 21:51:59;;;;;;;8.20;4.90;;;;;;;7.50;100.00;100254.13;107504;1244;59869;-73
2024/01/01 21:54:33;;;;;;;8.20;5.10;;;;;;;7.50;100.00;100255.39;107556;1245;58989;-69
2024/01/01 21:57:04;;;;;;;6.40;4.70;;;;;;;7.46;100.00;100261.71;107599;1244;62729;-72
2024/01/01 21:59:31;;;;;;;9.60;4.70;;;;;;;7.41;100.00;100267.23;107615;1253;62880;-72
2024/01/01 22:02:02;;;;;;;6.40;4.40;;;;;;;7.40;100.00;100266.91;107560;1241;70311;-74
2024/01/01 22:04:30;;;;;;;6.30;4.30;;;;;;;7.35;100.00;100273.16;107639;1252;62645;-74
2024/01/01 22:06:57;;;;;;;7.00;4.50;;;;;;;7.33;100.00;100278.30;107557;1245;59095;-73
2024/01/01 22:09:25;;;;;;;6.90;5.00;;;;;;;7.22;100.00;100285.46;107901;1241;61120;-73
2024/01/01 22:12:08;;;;;;;9.60;5.80;;;;;;;7.19;100.00;100291.74;107559;1241;71591;-87
2024/01/01 22:14:45;;;;;;;10.40;6.20;;;;;;;7.03;100.00;100290.98;107603;1244;60671;-76
2024/01/01 22:17:14;;;;;;;8.70;5.80;;;;;;;6.93;100.00;100296.66;107606;1244;59835;-79
2024/01/01 22:19:43;;;;;;;8.40;5.90;;;;;;;6.82;100.00;100301.19;107442;1245;71957;-75
2024/01/01 22:22:22;;;;;;;9.90;6.40;;;;;;;6.68;100.00;100302.40;107549;1241;58903;-74
2024/01/01 22:25:00;;;;;;;11.50;6.30;;;;;;;6.52;100.00;100302.69;107375;1245;58990;-73
2024/01/01 22:27:31;;;;;;;9.50;5.90;;;;;;;6.39;100.00;100303.15;107517;1248;61758;-74
2024/01/01 22:29:59;;;;;;;10.10;6.80;;;;;;;6.27;100.00;100303.18;107295;1245;71738;-78
2024/01/01 22:32:35;;;;;;;10.10;6.00;;;;;;;6.18;100.00;100304.83;107415;1245;60229;-75
2024/01/01 22:35:03;;;;;;;12.40;7.00;;;;;;;6.12;100.00;100304.62;107604;1241;73393;-77
2024/01/01 22:37:35;;;;;;;8.40;5.80;;;;;;;6.06;100.00;100306.39;107528;1251;62317;-77
2024/01/01 22:40:24;;;;;;;13.70;7.20;;;;;;;5.94;100.00;100313.30;107539;1241;60648;-76
2024/01/01 22:43:00;;;;;;;11.50;6.90;;;;;;;5.83;100.00;100315.67;109575;1241;64771;-78
2024/01/01 22:45:47;;;;;;;11.10;6.50;;;;;;;5.70;100.00;100311.59;109628;1241;72187;-79
2024/01/01 22:48:14;;;;;;;8.00;5.40;;;;;;;5.59;100.00;100320.69;109737;1241;59817;-76
2024/01/01 22:50:42;;;;;;;9.30;5.50;;;;;;;5.49;100.00;100326.63;109746;1241;73772;-78
2024/01/01 22:53:09;;;;;;;9.50;6.20;;;;;;;5.41;100.00;100332.77;109761;1241;57540;-77
2024/01/01 22:55:40;;;;;;;9.00;5.40;;;;;;;5.32;100.00;100342.09;109756;1241;57773;-77
2024/01/01 22:58:07;;;;;;;7.80;5.70;;;;;;;5.24;100.00;100343.78;109704;1241;72622;-77
2024/01/01 23:00:36;;;;;;;8.00;5.60;;;;;;;5.16;100.00;100342.98;109749;1241;62230;-77
2024/01/01 23:03:25;;;;;;;9.60;6.10;;;;;;;5.10;100.00;100342.15;109626;1241;59810;-79
2024/01/01 23:05:52;;;;;;;8.70;5.70;;;;;;;5.00;100.00;100341.10;109637;1241;72929;-77
2024/01/01 23:08:36;;;;;;;7.70;4.90;;;;;;;4.91;100.00;100341.45;109678;1242;62468;-77
2024/01/01 23:11:14;;;;;;;;;;;;;;;4.86;100.00;100340.52;109686;1242;60603;-77
2024/01/01 23:13:52;;;;;;;10.90;6.00;;;;;;;4.86;100.00;100345.04;109762;1241;62033;-78
2024/01/01 23:16:20;;;;;;;7.90;5.40;;;;;;;4.93;100.00;100340.81;109734;1242;71571;-77
2024/01/01 23:18:47;;;;;;;8.50;5.30;;;;;;;4.96;100.00;100341.54;109471;1241;60395;-80
2024/01/01 23:21:15;;;;;;;10.00;5.50;;;;;;;4.93;100.00;100350.82;109752;1241;73582;-77
2024/01/01 23:23:42;;;;;;;8.70;5.60;;;;;;;4.86;100.00;100353.64;109716;1241;57818;-78
2024/01/01 23:26:09;;;;;;;9.10;5.10;;;;;;;4.76;100.00;100350.52;109748;1241;60109;-78
2024/01/01 23:28:39;;;;;;;9.40;5.80;;;;;;;4.62;100.00;100350.76;109659;1241;62537;-77
2024/01/01 23:31:07;;;;;;;8.70;5.90;;;;;;;4.50;100.00;100361.08;109752;1241;72173;-78
2024/01/01 23:33:34;;;;;;;8.90;6.00;;;;;;;4.40;100.00;100371.23;109767;1241;60478;-77
2024/01/01 23:36:02;;;;;;;9.80;6.30;;;;;;;4.33;100.00;100373.88;109646;1241;73232;-77
2024/01/01 23:38:45;;;;;;;10.70;6.30;;;;;;;4.20;100.00;100378.98;109655;1241;57672;-77
2024/01/01 23:41:13;;;;;;;12.10;6.00;;;;;;;4.15;100.00;100383.42;109647;1241;57665;-77
2024/01/01 23:43:40;;;;;;;9.60;6.20;;;;;;;4.05;100.00;100383.75;109623;1241;71712;-77
2024/01/01 23:46:11;;;;;;;10.10;6.00;;;;;;;3.95;100.00;100378.86;109529;1241;62011;-79
2024/01/01 23:48:39;;;;;;;9.90;6.50;;;;;;;3.88;100.00;100379.05;109642;1241;69662;-79
2024/01/01 23:51:06;;;;;;;10.90;6.30;;;;;;;3.81;100.00;100379.40;109490;1242;63464;-77
2024/01/01 23:53:33;;;;;;;9.10;6.00;;;;;;;3.75;100.00;100376.46;109425;1244;61927;-77
2024/01/01 23:56:04;;;;;;;9.80;6.60;;;;;;;3.69;100.00;100382.91;109488;1241;61623;-77
2024/01/01 23:58:31;;;;;;;9.70;5.90;;;;;;;3.65;100.00;100378.65;109540;1241;73053;-77
